sensor_id;sensor_type;location;lat;lon;timestamp;temperature;humidity
21861;DHT22;11095;48.066;8.540;2023-08-24T00:02:00;19.40;99.90
21861;DHT22;11095;48.066;8.540;2023-08-24T00:04:26;19.30;99.90
21861;DHT22;11095;48.066;8.540;2023-08-24T00:06:51;19.30;99.90
21861;DHT22;11095;48.066;8.540;2023-08-24T00:09:17;19.30;99.90
21861;DHT22;11095;48.066;8.540;2023-08-24T00:11:42;19.20;99.90
21861;DHT22;11095;48.066;8.540;2023-08-24T00:14:09;19.20;99.90
21861;DHT22;11095;48.066;8.540;2023-08-24T00:16:34;19.20;99.90
21861;DHT22;11095;48.066;8.540;2023-08-24T00:19:00;19.20;99.90
21861;DHT22;11095;48.066;8.540;2023-08-24T00:21:25;19.10;99.90
21861;DHT22;11095;48.066;8.540;2023-08-24T00:23:51;19.10;99.90
21861;DHT22;11095;48.066;8.540;2023-08-24T00:26:18;19.10;99.90
21861;DHT22;11095;48.066;8.540;2023-08-24T00:28:44;19.10;99.90
21861;DHT22;11095;48.066;8.540;2023-08-24T00:31:09;19.00;99.90
21861;DHT22;11095;48.066;8.540;2023-08-24T00:33:35;19.00;99.90
21861;DHT22;11095;48.066;8.540;2023-08-24T00:36:01;19.00;99.90
21861;DHT22;11095;48.066;8.540;2023-08-24T00:38:27;18.90;99.90
21861;DHT22;11095;48.066;8.540;2023-08-24T00:40:53;18.90;99.90
21861;DHT22;11095;48.066;8.540;2023-08-24T00:43:19;18.90;99.90
21861;DHT22;11095;48.066;8.540;2023-08-24T00:45:53;18.80;99.90
21861;DHT22;11095;48.066;8.540;2023-08-24T00:48:21;18.80;99.90
21861;DHT22;11095;48.066;8.540;2023-08-24T00:50:52;18.80;99.90
21861;DHT22;11095;48.066;8.540;2023-08-24T00:53:17;18.80;99.90
21861;DHT22;11095;48.066;8.540;2023-08-24T00:55:44;18.70;99.90
21861;DHT22;11095;48.066;8.540;2023-08-24T00:58:10;18.70;99.90
21861;DHT22;11095;48.066;8.540;2023-08-24T01:00:35;18.60;99.90
21861;DHT22;11095;48.066;8.540;2023-08-24T01:03:01;18.60;99.90
21861;DHT22;11095;48.066;8.540;2023-08-24T01:05:27;18.60;99.90
21861;DHT22;11095;48.066;8.540;2023-08-24T01:07:53;18.50;99.90
21861;DHT22;11095;48.066;8.540;2023-08-24T01:10:19;18.50;99.90
21861;DHT22;11095;48.066;8.540;2023-08-24T01:13:05;18.50;99.90
21861;DHT22;11095;48.066;8.540;2023-08-24T01:18:06;18.50;99.90
21861;DHT22;11095;48.066;8.540;2023-08-24T01:20:34;18.50;99.90
21861;DHT22;11095;48.066;8.540;2023-08-24T01:25:52;18.50;99.90
21861;DHT22;11095;48.066;8.540;2023-08-24T01:28:22;18.40;99.90
21861;DHT22;11095;48.066;8.540;2023-08-24T01:30:48;18.40;99.90
21861;DHT22;11095;48.066;8.540;2023-08-24T01:33:14;18.40;99.90
21861;DHT22;11095;48.066;8.540;2023-08-24T01:35:40;18.30;99.90
21861;DHT22;11095;48.066;8.540;2023-08-24T01:38:07;18.30;99.90
21861;DHT22;11095;48.066;8.540;2023-08-24T01:40:45;18.30;99.90
21861;DHT22;11095;48.066;8.540;2023-08-24T01:43:13;18.30;99.90
21861;DHT22;11095;48.066;8.540;2023-08-24T01:45:41;18.30;99.90
21861;DHT22;11095;48.066;8.540;2023-08-24T01:48:09;18.30;99.90
21861;DHT22;11095;48.066;8.540;2023-08-24T01:50:35;18.20;99.90
21861;DHT22;11095;48.066;8.540;2023-08-24T01:53:02;18.20;99.90
21861;DHT22;11095;48.066;8.540;2023-08-24T01:55:28;18.20;99.90
21861;DHT22;11095;48.066;8.540;2023-08-24T01:57:55;18.10;99.90
21861;DHT22;11095;48.066;8.540;2023-08-24T02:00:21;18.10;99.90
21861;DHT22;11095;48.066;8.540;2023-08-24T02:02:46;18.10;99.90
21861;DHT22;11095;48.066;8.540;2023-08-24T02:05:12;18.10;99.90
21861;DHT22;11095;48.066;8.540;2023-08-24T02:07:38;18.10;99.90
21861;DHT22;11095;48.066;8.540;2023-08-24T02:10:04;18.10;99.90
21861;DHT22;11095;48.066;8.540;2023-08-24T02:12:30;18.00;99.90
21861;DHT22;11095;48.066;8.540;2023-08-24T02:14:55;18.00;99.90
21861;DHT22;11095;48.066;8.540;2023-08-24T02:17:21;18.00;99.90
21861;DHT22;11095;48.066;8.540;2023-08-24T02:19:47;18.00;99.90
21861;DHT22;11095;48.066;8.540;2023-08-24T02:22:12;18.00;99.90
21861;DHT22;11095;48.066;8.540;2023-08-24T02:24:38;18.00;99.90
21861;DHT22;11095;48.066;8.540;2023-08-24T02:27:04;18.00;99.90
21861;DHT22;11095;48.066;8.540;2023-08-24T02:29:30;18.00;99.90
21861;DHT22;11095;48.066;8.540;2023-08-24T02:31:55;18.00;99.90
21861;DHT22;11095;48.066;8.540;2023-08-24T02:34:21;17.90;99.90
21861;DHT22;11095;48.066;8.540;2023-08-24T02:36:46;17.90;99.90
21861;DHT22;11095;48.066;8.540;2023-08-24T02:39:12;17.90;99.90
21861;DHT22;11095;48.066;8.540;2023-08-24T02:41:38;17.90;99.90
21861;DHT22;11095;48.066;8.540;2023-08-24T02:44:04;17.90;99.90
21861;DHT22;11095;48.066;8.540;2023-08-24T02:46:30;17.80;99.90
21861;DHT22;11095;48.066;8.540;2023-08-24T02:48:55;17.80;99.90
21861;DHT22;11095;48.066;8.540;2023-08-24T02:51:22;17.80;99.90
21861;DHT22;11095;48.066;8.540;2023-08-24T02:53:48;17.80;99.90
21861;DHT22;11095;48.066;8.540;2023-08-24T02:56:13;17.80;99.90
21861;DHT22;11095;48.066;8.540;2023-08-24T02:58:39;17.90;99.90
21861;DHT22;11095;48.066;8.540;2023-08-24T03:01:08;17.90;99.90
21861;DHT22;11095;48.066;8.540;2023-08-24T03:03:35;17.90;99.90
21861;DHT22;11095;48.066;8.540;2023-08-24T03:06:02;17.90;99.90
21861;DHT22;11095;48.066;8.540;2023-08-24T03:08:32;17.90;99.90
21861;DHT22;11095;48.066;8.540;2023-08-24T03:10:59;17.90;99.90
21861;DHT22;11095;48.066;8.540;2023-08-24T03:13:26;17.90;99.90
21861;DHT22;11095;48.066;8.540;2023-08-24T03:15:51;17.90;99.90
21861;DHT22;11095;48.066;8.540;2023-08-24T03:18:18;17.90;99.90
21861;DHT22;11095;48.066;8.540;2023-08-24T03:20:45;17.90;99.90
21861;DHT22;11095;48.066;8.540;2023-08-24T03:23:11;17.90;99.90
21861;DHT22;11095;48.066;8.540;2023-08-24T03:25:39;17.90;99.90
21861;DHT22;11095;48.066;8.540;2023-08-24T03:28:06;18.00;99.90
21861;DHT22;11095;48.066;8.540;2023-08-24T03:30:34;18.00;99.90
21861;DHT22;11095;48.066;8.540;2023-08-24T03:33:00;18.00;99.90
21861;DHT22;11095;48.066;8.540;2023-08-24T03:35:26;17.90;99.90
21861;DHT22;11095;48.066;8.540;2023-08-24T03:37:52;17.90;99.90
21861;DHT22;11095;48.066;8.540;2023-08-24T03:40:17;17.90;99.90
21861;DHT22;11095;48.066;8.540;2023-08-24T03:42:43;17.90;99.90
21861;DHT22;11095;48.066;8.540;2023-08-24T03:45:09;17.90;99.90
21861;DHT22;11095;48.066;8.540;2023-08-24T03:47:34;17.90;99.90
21861;DHT22;11095;48.066;8.540;2023-08-24T03:50:00;18.00;99.90
21861;DHT22;11095;48.066;8.540;2023-08-24T03:52:26;18.00;99.90
21861;DHT22;11095;48.066;8.540;2023-08-24T03:54:51;18.00;99.90
21861;DHT22;11095;48.066;8.540;2023-08-24T03:57:17;18.00;99.90
21861;DHT22;11095;48.066;8.540;2023-08-24T03:59:42;18.10;99.90
21861;DHT22;11095;48.066;8.540;2023-08-24T04:02:08;18.10;99.90
21861;DHT22;11095;48.066;8.540;2023-08-24T04:04:33;18.10;99.90
21861;DHT22;11095;48.066;8.540;2023-08-24T04:06:59;18.00;99.90
21861;DHT22;11095;48.066;8.540;2023-08-24T04:09:25;18.00;99.90
21861;DHT22;11095;48.066;8.540;2023-08-24T04:11:51;18.00;99.90
21861;DHT22;11095;48.066;8.540;2023-08-24T04:14:16;17.90;99.90
21861;DHT22;11095;48.066;8.540;2023-08-24T04:16:42;17.90;99.90
21861;DHT22;11095;48.066;8.540;2023-08-24T04:19:08;17.90;99.90
21861;DHT22;11095;48.066;8.540;2023-08-24T04:21:34;17.90;99.90
21861;DHT22;11095;48.066;8.540;2023-08-24T04:23:59;17.80;99.90
21861;DHT22;11095;48.066;8.540;2023-08-24T04:26:25;17.80;99.90
21861;DHT22;11095;48.066;8.540;2023-08-24T04:28:51;17.80;99.90
21861;DHT22;11095;48.066;8.540;2023-08-24T04:31:16;17.80;99.90
21861;DHT22;11095;48.066;8.540;2023-08-24T04:33:42;17.80;99.90
21861;DHT22;11095;48.066;8.540;2023-08-24T04:36:07;17.80;99.90
21861;DHT22;11095;48.066;8.540;2023-08-24T04:38:33;17.70;99.90
21861;DHT22;11095;48.066;8.540;2023-08-24T04:40:59;17.70;99.90
21861;DHT22;11095;48.066;8.540;2023-08-24T04:43:25;17.70;99.90
21861;DHT22;11095;48.066;8.540;2023-08-24T04:45:52;17.70;99.90
21861;DHT22;11095;48.066;8.540;2023-08-24T04:48:18;17.70;99.90
21861;DHT22;11095;48.066;8.540;2023-08-24T04:50:45;17.80;99.90
21861;DHT22;11095;48.066;8.540;2023-08-24T04:53:13;17.80;99.90
21861;DHT22;11095;48.066;8.540;2023-08-24T04:55:40;17.90;99.90
21861;DHT22;11095;48.066;8.540;2023-08-24T04:58:07;18.00;99.90
21861;DHT22;11095;48.066;8.540;2023-08-24T05:00:33;18.20;99.90
21861;DHT22;11095;48.066;8.540;2023-08-24T05:02:59;18.40;99.90
21861;DHT22;11095;48.066;8.540;2023-08-24T05:05:24;18.70;99.90
21861;DHT22;11095;48.066;8.540;2023-08-24T05:07:50;19.00;99.90
21861;DHT22;11095;48.066;8.540;2023-08-24T05:10:15;19.40;99.90
21861;DHT22;11095;48.066;8.540;2023-08-24T05:12:41;19.70;99.90
21861;DHT22;11095;48.066;8.540;2023-08-24T05:15:07;20.10;99.90
21861;DHT22;11095;48.066;8.540;2023-08-24T05:17:32;20.60;99.90
21861;DHT22;11095;48.066;8.540;2023-08-24T05:19:59;20.90;99.90
21861;DHT22;11095;48.066;8.540;2023-08-24T05:22:24;21.20;99.90
21861;DHT22;11095;48.066;8.540;2023-08-24T05:24:50;21.20;99.90
21861;DHT22;11095;48.066;8.540;2023-08-24T05:27:15;21.10;99.90
21861;DHT22;11095;48.066;8.540;2023-08-24T05:29:42;20.90;99.90
21861;DHT22;11095;48.066;8.540;2023-08-24T05:32:07;20.80;99.90
21861;DHT22;11095;48.066;8.540;2023-08-24T05:34:33;20.70;99.90
21861;DHT22;11095;48.066;8.540;2023-08-24T05:36:58;20.70;99.90
21861;DHT22;11095;48.066;8.540;2023-08-24T05:39:24;20.70;99.90
21861;DHT22;11095;48.066;8.540;2023-08-24T05:41:51;20.60;99.90
21861;DHT22;11095;48.066;8.540;2023-08-24T05:44:17;20.60;99.90
21861;DHT22;11095;48.066;8.540;2023-08-24T05:46:45;20.80;99.90
21861;DHT22;11095;48.066;8.540;2023-08-24T05:49:11;21.20;99.90
21861;DHT22;11095;48.066;8.540;2023-08-24T05:51:36;22.00;99.90
21861;DHT22;11095;48.066;8.540;2023-08-24T05:54:02;23.00;99.90
21861;DHT22;11095;48.066;8.540;2023-08-24T05:56:28;24.00;99.90
21861;DHT22;11095;48.066;8.540;2023-08-24T05:58:54;24.90;99.90
21861;DHT22;11095;48.066;8.540;2023-08-24T06:01:20;25.30;99.90
21861;DHT22;11095;48.066;8.540;2023-08-24T06:03:46;25.40;99.90
21861;DHT22;11095;48.066;8.540;2023-08-24T06:06:12;25.30;99.90
21861;DHT22;11095;48.066;8.540;2023-08-24T06:08:37;25.00;99.90
21861;DHT22;11095;48.066;8.540;2023-08-24T06:11:03;24.50;99.90
21861;DHT22;11095;48.066;8.540;2023-08-24T06:13:29;24.00;99.90
21861;DHT22;11095;48.066;8.540;2023-08-24T06:15:54;23.60;99.90
21861;DHT22;11095;48.066;8.540;2023-08-24T06:18:20;23.30;99.90
21861;DHT22;11095;48.066;8.540;2023-08-24T06:20:46;22.80;99.90
21861;DHT22;11095;48.066;8.540;2023-08-24T06:23:15;22.60;99.90
21861;DHT22;11095;48.066;8.540;2023-08-24T06:25:42;22.30;99.90
21861;DHT22;11095;48.066;8.540;2023-08-24T06:28:08;22.10;99.90
21861;DHT22;11095;48.066;8.540;2023-08-24T06:30:38;21.90;99.90
21861;DHT22;11095;48.066;8.540;2023-08-24T06:33:05;21.90;99.90
21861;DHT22;11095;48.066;8.540;2023-08-24T06:35:35;21.80;99.90
21861;DHT22;11095;48.066;8.540;2023-08-24T06:38:02;21.80;99.90
21861;DHT22;11095;48.066;8.540;2023-08-24T06:40:28;21.80;99.90
21861;DHT22;11095;48.066;8.540;2023-08-24T06:42:54;21.80;99.90
21861;DHT22;11095;48.066;8.540;2023-08-24T06:45:20;21.90;99.90
21861;DHT22;11095;48.066;8.540;2023-08-24T06:47:45;21.90;99.90
21861;DHT22;11095;48.066;8.540;2023-08-24T06:50:11;21.80;99.90
21861;DHT22;11095;48.066;8.540;2023-08-24T06:52:36;21.90;99.90
21861;DHT22;11095;48.066;8.540;2023-08-24T06:55:03;21.90;99.90
21861;DHT22;11095;48.066;8.540;2023-08-24T06:57:29;22.00;99.90
21861;DHT22;11095;48.066;8.540;2023-08-24T06:59:54;22.10;99.90
21861;DHT22;11095;48.066;8.540;2023-08-24T07:02:20;22.20;99.90
21861;DHT22;11095;48.066;8.540;2023-08-24T07:04:46;22.30;99.90
21861;DHT22;11095;48.066;8.540;2023-08-24T07:07:11;22.50;99.90
21861;DHT22;11095;48.066;8.540;2023-08-24T07:09:37;22.60;99.90
21861;DHT22;11095;48.066;8.540;2023-08-24T07:12:03;22.80;99.90
21861;DHT22;11095;48.066;8.540;2023-08-24T07:14:31;23.10;99.90
21861;DHT22;11095;48.066;8.540;2023-08-24T07:16:57;23.50;99.90
21861;DHT22;11095;48.066;8.540;2023-08-24T07:19:22;23.80;99.90
21861;DHT22;11095;48.066;8.540;2023-08-24T07:21:48;24.20;99.90
21861;DHT22;11095;48.066;8.540;2023-08-24T07:24:14;25.30;99.90
21861;DHT22;11095;48.066;8.540;2023-08-24T07:26:40;27.20;99.90
21861;DHT22;11095;48.066;8.540;2023-08-24T07:29:07;29.40;99.90
21861;DHT22;11095;48.066;8.540;2023-08-24T07:31:33;31.60;99.90
21861;DHT22;11095;48.066;8.540;2023-08-24T07:33:58;33.50;99.90
21861;DHT22;11095;48.066;8.540;2023-08-24T07:36:24;35.00;99.90
21861;DHT22;11095;48.066;8.540;2023-08-24T07:38:49;35.60;99.90
21861;DHT22;11095;48.066;8.540;2023-08-24T07:41:15;35.40;99.90
21861;DHT22;11095;48.066;8.540;2023-08-24T07:43:43;34.80;99.90
21861;DHT22;11095;48.066;8.540;2023-08-24T07:46:09;34.80;99.90
21861;DHT22;11095;48.066;8.540;2023-08-24T07:48:35;35.70;99.90
21861;DHT22;11095;48.066;8.540;2023-08-24T07:51:01;36.90;99.70
21861;DHT22;11095;48.066;8.540;2023-08-24T07:53:27;37.10;98.00
21861;DHT22;11095;48.066;8.540;2023-08-24T07:55:54;36.40;97.30
21861;DHT22;11095;48.066;8.540;2023-08-24T07:58:21;36.00;97.60
21861;DHT22;11095;48.066;8.540;2023-08-24T08:00:49;36.00;97.80
21861;DHT22;11095;48.066;8.540;2023-08-24T08:03:15;36.40;97.50
21861;DHT22;11095;48.066;8.540;2023-08-24T08:05:41;37.00;96.00
21861;DHT22;11095;48.066;8.540;2023-08-24T08:08:06;37.30;95.40
21861;DHT22;11095;48.066;8.540;2023-08-24T08:10:32;38.20;94.80
21861;DHT22;11095;48.066;8.540;2023-08-24T08:12:57;39.10;93.90
21861;DHT22;11095;48.066;8.540;2023-08-24T08:15:23;39.50;91.60
21861;DHT22;11095;48.066;8.540;2023-08-24T08:17:49;39.50;92.10
21861;DHT22;11095;48.066;8.540;2023-08-24T08:20:15;40.00;90.90
21861;DHT22;11095;48.066;8.540;2023-08-24T08:22:40;40.10;89.10
21861;DHT22;11095;48.066;8.540;2023-08-24T08:25:06;40.00;87.90
21861;DHT22;11095;48.066;8.540;2023-08-24T08:27:32;40.10;87.80
21861;DHT22;11095;48.066;8.540;2023-08-24T08:29:58;39.70;86.50
21861;DHT22;11095;48.066;8.540;2023-08-24T08:32:24;36.80;88.60
21861;DHT22;11095;48.066;8.540;2023-08-24T08:34:55;36.40;90.80
21861;DHT22;11095;48.066;8.540;2023-08-24T08:37:25;36.20;91.90
21861;DHT22;11095;48.066;8.540;2023-08-24T08:39:51;36.80;91.70
21861;DHT22;11095;48.066;8.540;2023-08-24T08:42:16;37.10;91.50
21861;DHT22;11095;48.066;8.540;2023-08-24T08:44:45;37.40;91.10
21861;DHT22;11095;48.066;8.540;2023-08-24T08:47:11;37.50;91.00
21861;DHT22;11095;48.066;8.540;2023-08-24T08:49:39;37.40;90.90
21861;DHT22;11095;48.066;8.540;2023-08-24T08:52:05;37.20;90.90
21861;DHT22;11095;48.066;8.540;2023-08-24T08:54:31;36.90;91.20
21861;DHT22;11095;48.066;8.540;2023-08-24T08:56:59;36.80;91.70
21861;DHT22;11095;48.066;8.540;2023-08-24T08:59:27;37.00;91.80
21861;DHT22;11095;48.066;8.540;2023-08-24T09:01:56;36.50;92.10
21861;DHT22;11095;48.066;8.540;2023-08-24T09:04:24;37.10;92.10
21861;DHT22;11095;48.066;8.540;2023-08-24T09:06:51;36.50;91.90
21861;DHT22;11095;48.066;8.540;2023-08-24T09:09:16;35.70;92.50
21861;DHT22;11095;48.066;8.540;2023-08-24T09:11:43;36.10;92.70
21861;DHT22;11095;48.066;8.540;2023-08-24T09:14:12;36.70;92.40
21861;DHT22;11095;48.066;8.540;2023-08-24T09:16:39;36.10;92.10
21861;DHT22;11095;48.066;8.540;2023-08-24T09:19:06;36.00;92.80
21861;DHT22;11095;48.066;8.540;2023-08-24T09:21:37;36.10;92.90
21861;DHT22;11095;48.066;8.540;2023-08-24T09:24:03;36.40;93.20
21861;DHT22;11095;48.066;8.540;2023-08-24T09:26:36;36.00;93.10
21861;DHT22;11095;48.066;8.540;2023-08-24T09:29:20;36.30;93.60
21861;DHT22;11095;48.066;8.540;2023-08-24T09:31:46;36.20;92.70
21861;DHT22;11095;48.066;8.540;2023-08-24T09:34:12;35.60;93.00
21861;DHT22;11095;48.066;8.540;2023-08-24T09:36:38;35.50;93.50
21861;DHT22;11095;48.066;8.540;2023-08-24T09:39:05;35.30;93.90
21861;DHT22;11095;48.066;8.540;2023-08-24T09:41:49;35.30;94.40
21861;DHT22;11095;48.066;8.540;2023-08-24T09:44:17;35.50;95.00
21861;DHT22;11095;48.066;8.540;2023-08-24T09:46:43;35.70;94.10
21861;DHT22;11095;48.066;8.540;2023-08-24T09:49:10;35.80;94.10
21861;DHT22;11095;48.066;8.540;2023-08-24T09:51:38;36.10;94.00
21861;DHT22;11095;48.066;8.540;2023-08-24T09:54:06;36.20;94.30
21861;DHT22;11095;48.066;8.540;2023-08-24T09:56:42;36.60;93.90
21861;DHT22;11095;48.066;8.540;2023-08-24T09:59:17;36.90;93.40
21861;DHT22;11095;48.066;8.540;2023-08-24T10:01:45;37.30;93.10
21861;DHT22;11095;48.066;8.540;2023-08-24T10:04:13;37.80;92.50
21861;DHT22;11095;48.066;8.540;2023-08-24T10:06:40;37.90;91.10
21861;DHT22;11095;48.066;8.540;2023-08-24T10:09:14;37.60;91.60
21861;DHT22;11095;48.066;8.540;2023-08-24T10:11:55;37.30;92.80
21861;DHT22;11095;48.066;8.540;2023-08-24T10:14:27;37.30;91.80
21861;DHT22;11095;48.066;8.540;2023-08-24T10:16:54;36.90;92.60
21861;DHT22;11095;48.066;8.540;2023-08-24T10:19:22;36.70;93.40
21861;DHT22;11095;48.066;8.540;2023-08-24T10:21:48;36.60;92.80
21861;DHT22;11095;48.066;8.540;2023-08-24T10:24:16;36.50;91.70
21861;DHT22;11095;48.066;8.540;2023-08-24T10:26:42;36.40;92.00
21861;DHT22;11095;48.066;8.540;2023-08-24T10:29:08;36.30;92.80
21861;DHT22;11095;48.066;8.540;2023-08-24T10:31:35;35.70;92.10
21861;DHT22;11095;48.066;8.540;2023-08-24T10:34:04;35.20;93.00
21861;DHT22;11095;48.066;8.540;2023-08-24T10:36:30;35.10;93.80
21861;DHT22;11095;48.066;8.540;2023-08-24T10:38:56;35.30;93.80
21861;DHT22;11095;48.066;8.540;2023-08-24T10:41:27;35.60;93.90
21861;DHT22;11095;48.066;8.540;2023-08-24T10:44:04;36.00;94.20
21861;DHT22;11095;48.066;8.540;2023-08-24T10:46:35;36.20;92.80
21861;DHT22;11095;48.066;8.540;2023-08-24T10:49:04;35.90;91.90
21861;DHT22;11095;48.066;8.540;2023-08-24T10:51:30;35.60;91.00
21861;DHT22;11095;48.066;8.540;2023-08-24T10:53:58;35.40;91.60
21861;DHT22;11095;48.066;8.540;2023-08-24T10:56:52;35.60;91.70
21861;DHT22;11095;48.066;8.540;2023-08-24T10:59:19;36.00;92.10
21861;DHT22;11095;48.066;8.540;2023-08-24T11:01:55;36.50;90.90
21861;DHT22;11095;48.066;8.540;2023-08-24T11:04:21;36.40;90.50
21861;DHT22;11095;48.066;8.540;2023-08-24T11:07:00;36.10;90.30
21861;DHT22;11095;48.066;8.540;2023-08-24T11:09:47;35.90;91.40
21861;DHT22;11095;48.066;8.540;2023-08-24T11:12:13;35.90;91.50
21861;DHT22;11095;48.066;8.540;2023-08-24T11:14:49;36.20;91.00
21861;DHT22;11095;48.066;8.540;2023-08-24T11:17:24;36.30;91.30
21861;DHT22;11095;48.066;8.540;2023-08-24T11:19:54;36.40;90.80
21861;DHT22;11095;48.066;8.540;2023-08-24T11:22:20;36.40;88.60
21861;DHT22;11095;48.066;8.540;2023-08-24T11:24:49;36.20;89.70
21861;DHT22;11095;48.066;8.540;2023-08-24T11:27:14;36.20;90.20
21861;DHT22;11095;48.066;8.540;2023-08-24T11:29:42;36.30;90.20
21861;DHT22;11095;48.066;8.540;2023-08-24T11:32:07;36.20;89.60
21861;DHT22;11095;48.066;8.540;2023-08-24T11:34:34;36.00;89.50
21861;DHT22;11095;48.066;8.540;2023-08-24T11:37:01;35.70;89.50
21861;DHT22;11095;48.066;8.540;2023-08-24T11:39:27;35.70;90.30
21861;DHT22;11095;48.066;8.540;2023-08-24T11:41:58;35.80;89.90
21861;DHT22;11095;48.066;8.540;2023-08-24T11:44:24;36.00;90.00
21861;DHT22;11095;48.066;8.540;2023-08-24T11:46:50;36.00;88.00
21861;DHT22;11095;48.066;8.540;2023-08-24T11:49:15;35.80;88.60
21861;DHT22;11095;48.066;8.540;2023-08-24T11:51:41;35.50;89.10
21861;DHT22;11095;48.066;8.540;2023-08-24T11:54:07;35.20;89.80
21861;DHT22;11095;48.066;8.540;2023-08-24T11:56:40;34.90;90.30
21861;DHT22;11095;48.066;8.540;2023-08-24T11:59:06;34.60;90.80
21861;DHT22;11095;48.066;8.540;2023-08-24T12:01:36;34.30;91.10
21861;DHT22;11095;48.066;8.540;2023-08-24T12:04:01;34.20;91.40
21861;DHT22;11095;48.066;8.540;2023-08-24T12:06:27;34.40;91.00
21861;DHT22;11095;48.066;8.540;2023-08-24T12:08:53;34.40;91.40
21861;DHT22;11095;48.066;8.540;2023-08-24T12:11:21;34.80;91.40
21861;DHT22;11095;48.066;8.540;2023-08-24T12:13:52;35.10;90.80
21861;DHT22;11095;48.066;8.540;2023-08-24T12:16:22;35.30;90.50
21861;DHT22;11095;48.066;8.540;2023-08-24T12:18:57;35.40;90.20
21861;DHT22;11095;48.066;8.540;2023-08-24T12:21:25;35.60;89.10
21861;DHT22;11095;48.066;8.540;2023-08-24T12:24:05;35.50;89.50
21861;DHT22;11095;48.066;8.540;2023-08-24T12:26:34;35.60;89.90
21861;DHT22;11095;48.066;8.540;2023-08-24T12:29:08;35.60;89.80
21861;DHT22;11095;48.066;8.540;2023-08-24T12:31:35;35.60;88.50
21861;DHT22;11095;48.066;8.540;2023-08-24T12:34:03;35.50;88.60
21861;DHT22;11095;48.066;8.540;2023-08-24T12:36:29;35.40;89.60
21861;DHT22;11095;48.066;8.540;2023-08-24T12:38:55;35.50;89.70
21861;DHT22;11095;48.066;8.540;2023-08-24T12:41:22;35.60;87.80
21861;DHT22;11095;48.066;8.540;2023-08-24T12:43:47;35.60;89.30
21861;DHT22;11095;48.066;8.540;2023-08-24T12:46:13;35.80;87.80
21861;DHT22;11095;48.066;8.540;2023-08-24T12:48:38;35.70;87.50
21861;DHT22;11095;48.066;8.540;2023-08-24T12:51:04;35.80;88.80
21861;DHT22;11095;48.066;8.540;2023-08-24T12:53:30;36.00;88.50
21861;DHT22;11095;48.066;8.540;2023-08-24T12:55:55;36.10;87.80
21861;DHT22;11095;48.066;8.540;2023-08-24T12:58:21;36.20;88.20
21861;DHT22;11095;48.066;8.540;2023-08-24T13:00:46;36.30;87.70
21861;DHT22;11095;48.066;8.540;2023-08-24T13:03:12;36.30;86.00
21861;DHT22;11095;48.066;8.540;2023-08-24T13:05:38;36.10;86.60
21861;DHT22;11095;48.066;8.540;2023-08-24T13:08:03;36.00;86.80
21861;DHT22;11095;48.066;8.540;2023-08-24T13:10:29;35.90;88.50
21861;DHT22;11095;48.066;8.540;2023-08-24T13:12:55;35.90;88.40
21861;DHT22;11095;48.066;8.540;2023-08-24T13:15:21;36.00;88.10
21861;DHT22;11095;48.066;8.540;2023-08-24T13:17:47;36.00;88.40
21861;DHT22;11095;48.066;8.540;2023-08-24T13:20:12;36.00;87.00
21861;DHT22;11095;48.066;8.540;2023-08-24T13:22:38;35.80;87.00
21861;DHT22;11095;48.066;8.540;2023-08-24T13:25:04;35.90;88.10
21861;DHT22;11095;48.066;8.540;2023-08-24T13:27:30;36.00;86.40
21861;DHT22;11095;48.066;8.540;2023-08-24T13:29:59;35.90;85.70
21861;DHT22;11095;48.066;8.540;2023-08-24T13:32:25;35.70;86.40
21861;DHT22;11095;48.066;8.540;2023-08-24T13:34:50;35.60;85.60
21861;DHT22;11095;48.066;8.540;2023-08-24T13:37:17;35.50;86.80
21861;DHT22;11095;48.066;8.540;2023-08-24T13:39:43;35.40;87.40
21861;DHT22;11095;48.066;8.540;2023-08-24T13:42:08;35.30;87.90
21861;DHT22;11095;48.066;8.540;2023-08-24T13:44:34;35.30;87.20
21861;DHT22;11095;48.066;8.540;2023-08-24T13:47:00;35.30;88.20
21861;DHT22;11095;48.066;8.540;2023-08-24T13:49:25;35.30;87.90
21861;DHT22;11095;48.066;8.540;2023-08-24T13:51:51;35.30;87.50
21861;DHT22;11095;48.066;8.540;2023-08-24T13:54:18;35.20;87.80
21861;DHT22;11095;48.066;8.540;2023-08-24T13:56:45;35.30;88.30
21861;DHT22;11095;48.066;8.540;2023-08-24T13:59:11;35.40;88.00
21861;DHT22;11095;48.066;8.540;2023-08-24T14:01:37;35.40;86.80
21861;DHT22;11095;48.066;8.540;2023-08-24T14:04:03;35.30;86.40
21861;DHT22;11095;48.066;8.540;2023-08-24T14:06:30;35.30;86.90
21861;DHT22;11095;48.066;8.540;2023-08-24T14:08:58;35.40;88.00
21861;DHT22;11095;48.066;8.540;2023-08-24T14:11:24;35.50;88.40
21861;DHT22;11095;48.066;8.540;2023-08-24T14:13:50;35.70;87.30
21861;DHT22;11095;48.066;8.540;2023-08-24T14:16:17;35.70;87.40
21861;DHT22;11095;48.066;8.540;2023-08-24T14:18:43;35.60;85.40
21861;DHT22;11095;48.066;8.540;2023-08-24T14:21:10;35.40;85.40
21861;DHT22;11095;48.066;8.540;2023-08-24T14:23:35;35.20;85.70
21861;DHT22;11095;48.066;8.540;2023-08-24T14:26:01;35.20;85.90
21861;DHT22;11095;48.066;8.540;2023-08-24T14:31:16;34.80;86.70
21861;DHT22;11095;48.066;8.540;2023-08-24T14:33:41;34.80;86.80
21861;DHT22;11095;48.066;8.540;2023-08-24T14:36:07;34.90;85.70
21861;DHT22;11095;48.066;8.540;2023-08-24T14:38:33;35.00;84.90
21861;DHT22;11095;48.066;8.540;2023-08-24T14:40:58;35.20;83.00
21861;DHT22;11095;48.066;8.540;2023-08-24T14:43:27;35.40;83.80
21861;DHT22;11095;48.066;8.540;2023-08-24T14:45:54;35.60;84.20
21861;DHT22;11095;48.066;8.540;2023-08-24T14:48:19;35.60;82.80
21861;DHT22;11095;48.066;8.540;2023-08-24T14:50:45;35.70;83.50
21861;DHT22;11095;48.066;8.540;2023-08-24T14:53:11;35.90;84.10
21861;DHT22;11095;48.066;8.540;2023-08-24T14:55:40;36.10;80.40
21861;DHT22;11095;48.066;8.540;2023-08-24T14:58:06;36.20;79.10
21861;DHT22;11095;48.066;8.540;2023-08-24T15:00:33;36.30;77.20
21861;DHT22;11095;48.066;8.540;2023-08-24T15:02:58;36.40;74.90
21861;DHT22;11095;48.066;8.540;2023-08-24T15:05:24;36.10;74.80
21861;DHT22;11095;48.066;8.540;2023-08-24T15:07:50;35.80;76.60
21861;DHT22;11095;48.066;8.540;2023-08-24T15:10:16;35.50;78.10
21861;DHT22;11095;48.066;8.540;2023-08-24T15:12:43;35.50;79.70
21861;DHT22;11095;48.066;8.540;2023-08-24T15:15:09;34.90;75.70
21861;DHT22;11095;48.066;8.540;2023-08-24T15:17:35;34.40;77.90
21861;DHT22;11095;48.066;8.540;2023-08-24T15:20:02;34.40;76.50
21861;DHT22;11095;48.066;8.540;2023-08-24T15:22:31;34.40;76.30
21861;DHT22;11095;48.066;8.540;2023-08-24T15:24:57;34.30;75.90
21861;DHT22;11095;48.066;8.540;2023-08-24T15:27:24;34.30;77.30
21861;DHT22;11095;48.066;8.540;2023-08-24T15:29:49;34.30;76.80
21861;DHT22;11095;48.066;8.540;2023-08-24T15:32:17;34.30;77.40
21861;DHT22;11095;48.066;8.540;2023-08-24T15:34:43;34.20;78.10
21861;DHT22;11095;48.066;8.540;2023-08-24T15:37:08;34.30;78.20